sensor_id;sensor_type;location;lat;lon;timestamp;temperature;humidity
53962;DHT22;39868;53.398;6.564;2022-08-19T00:02:15;18.40;73.40
53962;DHT22;39868;53.398;6.564;2022-08-19T00:04:42;18.30;73.50
53962;DHT22;39868;53.398;6.564;2022-08-19T00:07:13;18.30;73.50
53962;DHT22;39868;53.398;6.564;2022-08-19T00:09:41;18.30;73.60
53962;DHT22;39868;53.398;6.564;2022-08-19T00:12:09;18.30;73.70
53962;DHT22;39868;53.398;6.564;2022-08-19T00:14:37;18.20;73.80
53962;DHT22;39868;53.398;6.564;2022-08-19T00:17:07;18.20;74.00
53962;DHT22;39868;53.398;6.564;2022-08-19T00:19:36;18.20;74.10
53962;DHT22;39868;53.398;6.564;2022-08-19T00:22:04;18.20;74.20
53962;DHT22;39868;53.398;6.564;2022-08-19T00:24:32;18.20;74.90
53962;DHT22;39868;53.398;6.564;2022-08-19T00:27:01;18.20;74.40
53962;DHT22;39868;53.398;6.564;2022-08-19T00:29:49;18.20;74.40
53962;DHT22;39868;53.398;6.564;2022-08-19T00:32:19;18.20;74.30
53962;DHT22;39868;53.398;6.564;2022-08-19T00:34:47;18.10;74.30
53962;DHT22;39868;53.398;6.564;2022-08-19T00:37:15;18.10;74.30
53962;DHT22;39868;53.398;6.564;2022-08-19T00:39:42;18.10;74.40
53962;DHT22;39868;53.398;6.564;2022-08-19T00:42:10;18.10;74.30
53962;DHT22;39868;53.398;6.564;2022-08-19T00:44:41;18.10;74.40
53962;DHT22;39868;53.398;6.564;2022-08-19T00:47:10;18.10;74.50
53962;DHT22;39868;53.398;6.564;2022-08-19T00:49:45;18.10;74.60
53962;DHT22;39868;53.398;6.564;2022-08-19T00:52:21;18.10;74.80
53962;DHT22;39868;53.398;6.564;2022-08-19T00:54:51;18.10;74.80
53962;DHT22;39868;53.398;6.564;2022-08-19T00:57:27;18.10;74.80
53962;DHT22;39868;53.398;6.564;2022-08-19T00:59:56;18.10;74.80
53962;DHT22;39868;53.398;6.564;2022-08-19T01:02:29;18.10;74.80
53962;DHT22;39868;53.398;6.564;2022-08-19T01:04:58;18.10;74.80
53962;DHT22;39868;53.398;6.564;2022-08-19T01:07:26;18.10;74.90
53962;DHT22;39868;53.398;6.564;2022-08-19T01:10:02;18.10;74.80
53962;DHT22;39868;53.398;6.564;2022-08-19T01:12:30;18.10;74.80
53962;DHT22;39868;53.398;6.564;2022-08-19T01:14:59;18.00;74.70
53962;DHT22;39868;53.398;6.564;2022-08-19T01:17:27;18.00;74.70
53962;DHT22;39868;53.398;6.564;2022-08-19T01:19:55;18.00;74.60
53962;DHT22;39868;53.398;6.564;2022-08-19T01:24:58;18.00;74.60
53962;DHT22;39868;53.398;6.564;2022-08-19T01:27:26;18.00;74.60
53962;DHT22;39868;53.398;6.564;2022-08-19T01:30:11;17.90;74.60
53962;DHT22;39868;53.398;6.564;2022-08-19T01:32:39;17.90;74.60
53962;DHT22;39868;53.398;6.564;2022-08-19T01:35:07;17.90;74.70
53962;DHT22;39868;53.398;6.564;2022-08-19T01:37:49;17.90;74.90
53962;DHT22;39868;53.398;6.564;2022-08-19T01:40:19;17.90;75.10
53962;DHT22;39868;53.398;6.564;2022-08-19T01:42:49;17.90;75.10
53962;DHT22;39868;53.398;6.564;2022-08-19T01:45:19;17.80;75.10
53962;DHT22;39868;53.398;6.564;2022-08-19T01:47:47;17.80;75.20
53962;DHT22;39868;53.398;6.564;2022-08-19T01:50:30;17.80;75.20
53962;DHT22;39868;53.398;6.564;2022-08-19T01:52:59;17.80;75.20
53962;DHT22;39868;53.398;6.564;2022-08-19T01:55:38;17.90;75.30
53962;DHT22;39868;53.398;6.564;2022-08-19T01:58:21;17.80;75.20
53962;DHT22;39868;53.398;6.564;2022-08-19T02:00:49;17.90;75.20
53962;DHT22;39868;53.398;6.564;2022-08-19T02:03:17;17.80;75.10
53962;DHT22;39868;53.398;6.564;2022-08-19T02:05:45;17.80;75.10
53962;DHT22;39868;53.398;6.564;2022-08-19T02:08:13;17.80;75.10
53962;DHT22;39868;53.398;6.564;2022-08-19T02:10:43;17.80;75.20
53962;DHT22;39868;53.398;6.564;2022-08-19T02:13:11;17.80;75.30
53962;DHT22;39868;53.398;6.564;2022-08-19T02:15:40;17.80;75.30
53962;DHT22;39868;53.398;6.564;2022-08-19T02:18:08;17.80;75.30
53962;DHT22;39868;53.398;6.564;2022-08-19T02:20:37;17.80;75.30
53962;DHT22;39868;53.398;6.564;2022-08-19T02:23:06;17.80;75.40
53962;DHT22;39868;53.398;6.564;2022-08-19T02:25:43;17.70;75.20
53962;DHT22;39868;53.398;6.564;2022-08-19T02:28:11;17.70;75.20
53962;DHT22;39868;53.398;6.564;2022-08-19T02:30:45;17.70;75.10
53962;DHT22;39868;53.398;6.564;2022-08-19T02:33:14;17.70;75.10
53962;DHT22;39868;53.398;6.564;2022-08-19T02:35:46;17.70;75.00
53962;DHT22;39868;53.398;6.564;2022-08-19T02:38:14;17.70;74.90
53962;DHT22;39868;53.398;6.564;2022-08-19T02:41:02;17.60;74.80
53962;DHT22;39868;53.398;6.564;2022-08-19T02:43:34;17.60;74.90
53962;DHT22;39868;53.398;6.564;2022-08-19T02:46:28;17.60;74.90
53962;DHT22;39868;53.398;6.564;2022-08-19T02:48:59;17.50;74.90
53962;DHT22;39868;53.398;6.564;2022-08-19T02:51:35;17.50;75.10
53962;DHT22;39868;53.398;6.564;2022-08-19T02:54:04;17.50;75.30
53962;DHT22;39868;53.398;6.564;2022-08-19T02:56:35;17.50;75.40
53962;DHT22;39868;53.398;6.564;2022-08-19T02:59:04;17.50;75.60
53962;DHT22;39868;53.398;6.564;2022-08-19T03:01:41;17.40;75.70
53962;DHT22;39868;53.398;6.564;2022-08-19T03:04:12;17.50;75.90
53962;DHT22;39868;53.398;6.564;2022-08-19T03:06:42;17.50;76.00
53962;DHT22;39868;53.398;6.564;2022-08-19T03:09:11;17.50;76.00
53962;DHT22;39868;53.398;6.564;2022-08-19T03:11:39;17.50;76.00
53962;DHT22;39868;53.398;6.564;2022-08-19T03:14:08;17.50;76.00
53962;DHT22;39868;53.398;6.564;2022-08-19T03:16:48;17.50;76.00
53962;DHT22;39868;53.398;6.564;2022-08-19T03:19:17;17.50;76.00
53962;DHT22;39868;53.398;6.564;2022-08-19T03:21:45;17.50;76.00
53962;DHT22;39868;53.398;6.564;2022-08-19T03:24:14;17.50;76.00
53962;DHT22;39868;53.398;6.564;2022-08-19T03:26:46;17.50;76.00
53962;DHT22;39868;53.398;6.564;2022-08-19T03:29:15;17.50;76.00
53962;DHT22;39868;53.398;6.564;2022-08-19T03:31:56;17.60;76.00
53962;DHT22;39868;53.398;6.564;2022-08-19T03:34:26;17.60;75.90
53962;DHT22;39868;53.398;6.564;2022-08-19T03:36:59;17.60;75.90
53962;DHT22;39868;53.398;6.564;2022-08-19T03:39:27;17.60;75.90
53962;DHT22;39868;53.398;6.564;2022-08-19T03:41:55;17.50;75.70
53962;DHT22;39868;53.398;6.564;2022-08-19T03:44:44;17.50;75.80
53962;DHT22;39868;53.398;6.564;2022-08-19T03:47:12;17.50;75.80
53962;DHT22;39868;53.398;6.564;2022-08-19T03:49:43;17.50;75.80
53962;DHT22;39868;53.398;6.564;2022-08-19T03:52:11;17.50;75.90
53962;DHT22;39868;53.398;6.564;2022-08-19T03:54:38;17.50;75.50
53962;DHT22;39868;53.398;6.564;2022-08-19T03:57:06;17.50;75.40
53962;DHT22;39868;53.398;6.564;2022-08-19T03:59:35;17.50;75.40
53962;DHT22;39868;53.398;6.564;2022-08-19T04:02:06;17.50;75.30
53962;DHT22;39868;53.398;6.564;2022-08-19T04:04:37;17.40;75.20
53962;DHT22;39868;53.398;6.564;2022-08-19T04:07:04;17.40;75.20
53962;DHT22;39868;53.398;6.564;2022-08-19T04:09:33;17.40;75.10
53962;DHT22;39868;53.398;6.564;2022-08-19T04:12:01;17.30;75.10
53962;DHT22;39868;53.398;6.564;2022-08-19T04:14:29;17.20;75.10
53962;DHT22;39868;53.398;6.564;2022-08-19T04:16:59;17.20;75.20
53962;DHT22;39868;53.398;6.564;2022-08-19T04:19:28;17.20;75.20
53962;DHT22;39868;53.398;6.564;2022-08-19T04:21:56;17.20;75.20
53962;DHT22;39868;53.398;6.564;2022-08-19T04:24:25;17.10;75.20
53962;DHT22;39868;53.398;6.564;2022-08-19T04:26:52;17.10;75.20
53962;DHT22;39868;53.398;6.564;2022-08-19T04:29:21;17.00;75.20
53962;DHT22;39868;53.398;6.564;2022-08-19T04:31:53;17.00;75.20
53962;DHT22;39868;53.398;6.564;2022-08-19T04:34:21;17.00;75.20
53962;DHT22;39868;53.398;6.564;2022-08-19T04:36:52;16.90;75.10
53962;DHT22;39868;53.398;6.564;2022-08-19T04:39:21;16.90;75.10
53962;DHT22;39868;53.398;6.564;2022-08-19T04:41:49;16.90;75.10
53962;DHT22;39868;53.398;6.564;2022-08-19T04:44:35;16.80;75.10
53962;DHT22;39868;53.398;6.564;2022-08-19T04:47:11;16.80;75.20
53962;DHT22;39868;53.398;6.564;2022-08-19T04:49:39;16.70;75.20
53962;DHT22;39868;53.398;6.564;2022-08-19T04:52:07;16.70;75.20
53962;DHT22;39868;53.398;6.564;2022-08-19T04:54:35;16.70;75.30
53962;DHT22;39868;53.398;6.564;2022-08-19T04:57:06;16.60;75.30
53962;DHT22;39868;53.398;6.564;2022-08-19T04:59:34;16.60;75.30
53962;DHT22;39868;53.398;6.564;2022-08-19T05:02:02;16.60;75.30
53962;DHT22;39868;53.398;6.564;2022-08-19T05:04:30;16.60;75.40
53962;DHT22;39868;53.398;6.564;2022-08-19T05:06:59;16.50;75.40
53962;DHT22;39868;53.398;6.564;2022-08-19T05:09:28;16.50;75.50
53962;DHT22;39868;53.398;6.564;2022-08-19T05:12:16;16.50;75.50
53962;DHT22;39868;53.398;6.564;2022-08-19T05:14:44;16.50;75.50
53962;DHT22;39868;53.398;6.564;2022-08-19T05:17:13;16.50;75.50
53962;DHT22;39868;53.398;6.564;2022-08-19T05:20:01;16.50;75.50
53962;DHT22;39868;53.398;6.564;2022-08-19T05:22:46;16.50;75.60
53962;DHT22;39868;53.398;6.564;2022-08-19T05:25:16;16.50;75.70
53962;DHT22;39868;53.398;6.564;2022-08-19T05:27:45;16.50;75.80
53962;DHT22;39868;53.398;6.564;2022-08-19T05:30:13;16.50;75.80
53962;DHT22;39868;53.398;6.564;2022-08-19T05:32:40;16.60;76.00
53962;DHT22;39868;53.398;6.564;2022-08-19T05:35:08;16.60;76.00
53962;DHT22;39868;53.398;6.564;2022-08-19T05:37:36;16.60;76.10
53962;DHT22;39868;53.398;6.564;2022-08-19T05:40:06;16.70;76.20
53962;DHT22;39868;53.398;6.564;2022-08-19T05:42:34;16.70;76.40
53962;DHT22;39868;53.398;6.564;2022-08-19T05:45:02;16.80;76.50
53962;DHT22;39868;53.398;6.564;2022-08-19T05:47:29;16.90;76.70
53962;DHT22;39868;53.398;6.564;2022-08-19T05:49:57;17.00;76.80
53962;DHT22;39868;53.398;6.564;2022-08-19T05:52:24;17.00;76.90
53962;DHT22;39868;53.398;6.564;2022-08-19T05:54:53;17.10;77.00
53962;DHT22;39868;53.398;6.564;2022-08-19T05:57:23;17.20;77.10
53962;DHT22;39868;53.398;6.564;2022-08-19T05:59:51;17.30;77.20
53962;DHT22;39868;53.398;6.564;2022-08-19T06:02:25;17.40;77.30
53962;DHT22;39868;53.398;6.564;2022-08-19T06:04:52;17.50;77.30
53962;DHT22;39868;53.398;6.564;2022-08-19T06:07:20;17.50;77.30
53962;DHT22;39868;53.398;6.564;2022-08-19T06:09:47;17.60;77.30
53962;DHT22;39868;53.398;6.564;2022-08-19T06:12:27;17.70;77.30
53962;DHT22;39868;53.398;6.564;2022-08-19T06:14:59;17.80;77.40
53962;DHT22;39868;53.398;6.564;2022-08-19T06:17:28;17.90;77.40
53962;DHT22;39868;53.398;6.564;2022-08-19T06:19:58;18.00;77.50
53962;DHT22;39868;53.398;6.564;2022-08-19T06:22:26;18.10;77.50
53962;DHT22;39868;53.398;6.564;2022-08-19T06:24:55;18.20;77.60
53962;DHT22;39868;53.398;6.564;2022-08-19T06:27:22;18.30;77.60
53962;DHT22;39868;53.398;6.564;2022-08-19T06:29:50;18.30;77.60
53962;DHT22;39868;53.398;6.564;2022-08-19T06:32:17;18.40;77.70
53962;DHT22;39868;53.398;6.564;2022-08-19T06:34:46;18.50;77.70
53962;DHT22;39868;53.398;6.564;2022-08-19T06:37:13;18.60;77.70
53962;DHT22;39868;53.398;6.564;2022-08-19T06:39:42;18.70;77.80
53962;DHT22;39868;53.398;6.564;2022-08-19T06:42:10;18.80;77.90
53962;DHT22;39868;53.398;6.564;2022-08-19T06:44:40;18.90;77.90
53962;DHT22;39868;53.398;6.564;2022-08-19T06:47:15;19.00;77.90
53962;DHT22;39868;53.398;6.564;2022-08-19T06:49:55;19.00;77.90
53962;DHT22;39868;53.398;6.564;2022-08-19T06:52:32;19.10;77.90
53962;DHT22;39868;53.398;6.564;2022-08-19T06:55:04;19.20;77.90
53962;DHT22;39868;53.398;6.564;2022-08-19T06:57:32;19.30;78.00
53962;DHT22;39868;53.398;6.564;2022-08-19T07:00:00;19.40;78.00
53962;DHT22;39868;53.398;6.564;2022-08-19T07:02:28;19.50;78.10
53962;DHT22;39868;53.398;6.564;2022-08-19T07:04:55;19.60;78.10
53962;DHT22;39868;53.398;6.564;2022-08-19T07:07:25;19.60;78.10
53962;DHT22;39868;53.398;6.564;2022-08-19T07:09:52;19.70;78.10
53962;DHT22;39868;53.398;6.564;2022-08-19T07:12:28;19.80;78.20
53962;DHT22;39868;53.398;6.564;2022-08-19T07:14:58;19.90;78.20
53962;DHT22;39868;53.398;6.564;2022-08-19T07:17:25;20.00;78.30
53962;DHT22;39868;53.398;6.564;2022-08-19T07:19:52;20.10;78.30
53962;DHT22;39868;53.398;6.564;2022-08-19T07:22:21;20.20;78.40
53962;DHT22;39868;53.398;6.564;2022-08-19T07:24:50;20.30;78.40
53962;DHT22;39868;53.398;6.564;2022-08-19T07:27:18;20.30;78.40
53962;DHT22;39868;53.398;6.564;2022-08-19T07:29:53;20.40;78.40
53962;DHT22;39868;53.398;6.564;2022-08-19T07:32:23;20.50;78.40
53962;DHT22;39868;53.398;6.564;2022-08-19T07:34:53;20.60;78.40
53962;DHT22;39868;53.398;6.564;2022-08-19T07:37:25;20.70;78.40
53962;DHT22;39868;53.398;6.564;2022-08-19T07:40:06;20.80;78.40
53962;DHT22;39868;53.398;6.564;2022-08-19T07:42:33;20.90;78.50
53962;DHT22;39868;53.398;6.564;2022-08-19T07:45:01;21.00;78.40
53962;DHT22;39868;53.398;6.564;2022-08-19T07:47:28;21.10;78.50
53962;DHT22;39868;53.398;6.564;2022-08-19T07:50:17;21.20;78.40
53962;DHT22;39868;53.398;6.564;2022-08-19T07:52:47;21.30;78.40
53962;DHT22;39868;53.398;6.564;2022-08-19T07:55:18;21.40;78.40
53962;DHT22;39868;53.398;6.564;2022-08-19T07:58:06;21.40;78.30
53962;DHT22;39868;53.398;6.564;2022-08-19T08:00:34;21.50;78.30
53962;DHT22;39868;53.398;6.564;2022-08-19T08:03:02;21.60;78.20
53962;DHT22;39868;53.398;6.564;2022-08-19T08:05:30;21.70;78.20
53962;DHT22;39868;53.398;6.564;2022-08-19T08:08:16;21.80;78.30
53962;DHT22;39868;53.398;6.564;2022-08-19T08:11:15;21.90;78.30
53962;DHT22;39868;53.398;6.564;2022-08-19T08:13:45;22.00;78.20
53962;DHT22;39868;53.398;6.564;2022-08-19T08:16:27;22.10;78.20
53962;DHT22;39868;53.398;6.564;2022-08-19T08:18:58;22.20;78.20
53962;DHT22;39868;53.398;6.564;2022-08-19T08:21:26;22.30;78.20
53962;DHT22;39868;53.398;6.564;2022-08-19T08:23:54;22.40;78.20
53962;DHT22;39868;53.398;6.564;2022-08-19T08:26:23;22.50;78.20
53962;DHT22;39868;53.398;6.564;2022-08-19T08:28:51;22.50;78.10
53962;DHT22;39868;53.398;6.564;2022-08-19T08:31:18;22.70;78.10
53962;DHT22;39868;53.398;6.564;2022-08-19T08:33:46;22.70;77.90
53962;DHT22;39868;53.398;6.564;2022-08-19T08:36:13;22.80;77.80
53962;DHT22;39868;53.398;6.564;2022-08-19T08:38:42;22.90;77.80
53962;DHT22;39868;53.398;6.564;2022-08-19T08:41:18;23.00;77.70
53962;DHT22;39868;53.398;6.564;2022-08-19T08:43:49;23.00;77.60
53962;DHT22;39868;53.398;6.564;2022-08-19T08:46:24;23.20;77.60
53962;DHT22;39868;53.398;6.564;2022-08-19T08:49:16;23.20;77.40
53962;DHT22;39868;53.398;6.564;2022-08-19T08:51:48;23.30;77.00
53962;DHT22;39868;53.398;6.564;2022-08-19T08:54:28;23.40;76.90
53962;DHT22;39868;53.398;6.564;2022-08-19T08:57:01;23.50;76.90
53962;DHT22;39868;53.398;6.564;2022-08-19T08:59:30;23.60;76.80
53962;DHT22;39868;53.398;6.564;2022-08-19T09:01:59;23.70;76.80
53962;DHT22;39868;53.398;6.564;2022-08-19T09:04:27;23.80;76.70
53962;DHT22;39868;53.398;6.564;2022-08-19T09:06:58;23.80;76.50
53962;DHT22;39868;53.398;6.564;2022-08-19T09:09:50;23.90;76.40
53962;DHT22;39868;53.398;6.564;2022-08-19T09:14:56;24.10;76.10
53962;DHT22;39868;53.398;6.564;2022-08-19T09:17:27;24.20;76.00
53962;DHT22;39868;53.398;6.564;2022-08-19T09:19:59;24.20;75.90
53962;DHT22;39868;53.398;6.564;2022-08-19T09:22:38;24.30;75.40
53962;DHT22;39868;53.398;6.564;2022-08-19T09:25:07;24.40;75.40
53962;DHT22;39868;53.398;6.564;2022-08-19T09:27:35;24.50;75.40
53962;DHT22;39868;53.398;6.564;2022-08-19T09:30:11;24.50;75.20
53962;DHT22;39868;53.398;6.564;2022-08-19T09:32:39;24.60;75.20
53962;DHT22;39868;53.398;6.564;2022-08-19T09:35:09;24.70;75.10
53962;DHT22;39868;53.398;6.564;2022-08-19T09:37:38;24.80;75.00
53962;DHT22;39868;53.398;6.564;2022-08-19T09:40:14;24.80;74.60
53962;DHT22;39868;53.398;6.564;2022-08-19T09:42:43;24.90;74.60
53962;DHT22;39868;53.398;6.564;2022-08-19T09:45:17;25.00;74.60
53962;DHT22;39868;53.398;6.564;2022-08-19T09:47:44;25.10;75.00
53962;DHT22;39868;53.398;6.564;2022-08-19T09:50:13;25.10;74.30
53962;DHT22;39868;53.398;6.564;2022-08-19T09:52:42;25.20;74.30
53962;DHT22;39868;53.398;6.564;2022-08-19T09:55:23;25.30;74.10
53962;DHT22;39868;53.398;6.564;2022-08-19T09:57:59;25.30;74.00
53962;DHT22;39868;53.398;6.564;2022-08-19T10:00:27;25.40;74.20
53962;DHT22;39868;53.398;6.564;2022-08-19T10:02:54;25.50;73.90
53962;DHT22;39868;53.398;6.564;2022-08-19T10:05:22;25.60;73.80
53962;DHT22;39868;53.398;6.564;2022-08-19T10:08:08;25.60;73.80
53962;DHT22;39868;53.398;6.564;2022-08-19T10:10:42;25.70;73.80
53962;DHT22;39868;53.398;6.564;2022-08-19T10:13:13;25.80;73.90
53962;DHT22;39868;53.398;6.564;2022-08-19T10:15:41;25.90;73.80
53962;DHT22;39868;53.398;6.564;2022-08-19T10:18:14;25.90;73.60
53962;DHT22;39868;53.398;6.564;2022-08-19T10:20:48;26.00;73.30
53962;DHT22;39868;53.398;6.564;2022-08-19T10:23:19;26.10;73.30
53962;DHT22;39868;53.398;6.564;2022-08-19T10:25:47;26.20;73.40
53962;DHT22;39868;53.398;6.564;2022-08-19T10:28:15;26.20;73.10
53962;DHT22;39868;53.398;6.564;2022-08-19T10:30:45;26.30;73.00
53962;DHT22;39868;53.398;6.564;2022-08-19T10:33:12;26.30;72.70
53962;DHT22;39868;53.398;6.564;2022-08-19T10:36:03;26.40;72.40
53962;DHT22;39868;53.398;6.564;2022-08-19T10:38:31;26.40;72.10
53962;DHT22;39868;53.398;6.564;2022-08-19T10:41:06;26.50;72.20
53962;DHT22;39868;53.398;6.564;2022-08-19T10:43:34;26.50;72.10
53962;DHT22;39868;53.398;6.564;2022-08-19T10:46:06;26.60;72.10
53962;DHT22;39868;53.398;6.564;2022-08-19T10:48:40;26.60;72.10
53962;DHT22;39868;53.398;6.564;2022-08-19T10:51:08;26.70;71.00
53962;DHT22;39868;53.398;6.564;2022-08-19T10:53:54;26.70;71.40
53962;DHT22;39868;53.398;6.564;2022-08-19T10:56:22;26.80;71.60
53962;DHT22;39868;53.398;6.564;2022-08-19T10:59:08;26.80;71.50
53962;DHT22;39868;53.398;6.564;2022-08-19T11:01:35;26.80;71.40
53962;DHT22;39868;53.398;6.564;2022-08-19T11:04:03;26.80;71.40
53962;DHT22;39868;53.398;6.564;2022-08-19T11:06:31;26.80;71.10
53962;DHT22;39868;53.398;6.564;2022-08-19T11:08:59;26.80;71.00
53962;DHT22;39868;53.398;6.564;2022-08-19T11:11:27;26.80;71.10
53962;DHT22;39868;53.398;6.564;2022-08-19T11:13:55;26.90;71.10
53962;DHT22;39868;53.398;6.564;2022-08-19T11:16:24;27.00;71.20
53962;DHT22;39868;53.398;6.564;2022-08-19T11:18:53;27.00;71.00
53962;DHT22;39868;53.398;6.564;2022-08-19T11:21:26;27.10;70.90
53962;DHT22;39868;53.398;6.564;2022-08-19T11:23:55;27.20;70.70
53962;DHT22;39868;53.398;6.564;2022-08-19T11:26:23;27.30;70.70
53962;DHT22;39868;53.398;6.564;2022-08-19T11:28:51;27.30;70.80
53962;DHT22;39868;53.398;6.564;2022-08-19T11:31:22;27.40;70.80
53962;DHT22;39868;53.398;6.564;2022-08-19T11:33:57;27.40;70.30
53962;DHT22;39868;53.398;6.564;2022-08-19T11:36:25;27.50;66.40
53962;DHT22;39868;53.398;6.564;2022-08-19T11:38:53;27.50;66.70
53962;DHT22;39868;53.398;6.564;2022-08-19T11:41:22;27.40;66.10
53962;DHT22;39868;53.398;6.564;2022-08-19T11:43:51;27.40;66.80
53962;DHT22;39868;53.398;6.564;2022-08-19T11:46:24;27.40;67.00
53962;DHT22;39868;53.398;6.564;2022-08-19T11:48:52;27.40;66.60
53962;DHT22;39868;53.398;6.564;2022-08-19T11:51:22;27.50;66.10
53962;DHT22;39868;53.398;6.564;2022-08-19T11:53:55;27.50;66.90
53962;DHT22;39868;53.398;6.564;2022-08-19T11:56:23;27.60;67.00
53962;DHT22;39868;53.398;6.564;2022-08-19T11:58:52;27.70;64.80
53962;DHT22;39868;53.398;6.564;2022-08-19T12:01:21;27.70;65.40
53962;DHT22;39868;53.398;6.564;2022-08-19T12:03:51;27.80;65.30
53962;DHT22;39868;53.398;6.564;2022-08-19T12:06:22;27.80;65.70
53962;DHT22;39868;53.398;6.564;2022-08-19T12:08:56;27.90;65.10
53962;DHT22;39868;53.398;6.564;2022-08-19T12:11:25;27.90;65.60
53962;DHT22;39868;53.398;6.564;2022-08-19T12:13:53;27.90;66.00
53962;DHT22;39868;53.398;6.564;2022-08-19T12:16:25;27.90;65.20
53962;DHT22;39868;53.398;6.564;2022-08-19T12:18:55;27.90;65.70
53962;DHT22;39868;53.398;6.564;2022-08-19T12:21:25;27.90;65.50
53962;DHT22;39868;53.398;6.564;2022-08-19T12:23:56;27.90;65.70
53962;DHT22;39868;53.398;6.564;2022-08-19T12:26:25;27.90;64.20
53962;DHT22;39868;53.398;6.564;2022-08-19T12:28:54;27.90;64.50
53962;DHT22;39868;53.398;6.564;2022-08-19T12:31:22;27.90;64.20
53962;DHT22;39868;53.398;6.564;2022-08-19T12:33:49;27.80;63.70
53962;DHT22;39868;53.398;6.564;2022-08-19T12:36:18;27.80;63.90
53962;DHT22;39868;53.398;6.564;2022-08-19T12:38:46;27.80;64.30
53962;DHT22;39868;53.398;6.564;2022-08-19T12:41:15;27.80;64.80
53962;DHT22;39868;53.398;6.564;2022-08-19T12:43:45;27.80;64.50
53962;DHT22;39868;53.398;6.564;2022-08-19T12:46:17;27.80;64.20
53962;DHT22;39868;53.398;6.564;2022-08-19T12:48:48;27.80;64.90
53962;DHT22;39868;53.398;6.564;2022-08-19T12:51:21;27.70;64.50
53962;DHT22;39868;53.398;6.564;2022-08-19T12:53:48;27.60;64.50
53962;DHT22;39868;53.398;6.564;2022-08-19T12:56:17;27.60;65.30
53962;DHT22;39868;53.398;6.564;2022-08-19T12:58:49;27.40;65.50
53962;DHT22;39868;53.398;6.564;2022-08-19T13:01:19;27.30;65.40
53962;DHT22;39868;53.398;6.564;2022-08-19T13:03:50;27.20;65.70
53962;DHT22;39868;53.398;6.564;2022-08-19T13:06:20;27.00;65.90
53962;DHT22;39868;53.398;6.564;2022-08-19T13:08:48;26.90;65.70
53962;DHT22;39868;53.398;6.564;2022-08-19T13:11:18;26.70;66.30
53962;DHT22;39868;53.398;6.564;2022-08-19T13:13:48;26.50;66.40
53962;DHT22;39868;53.398;6.564;2022-08-19T13:16:18;26.40;66.90
53962;DHT22;39868;53.398;6.564;2022-08-19T13:18:47;26.20;67.70
53962;DHT22;39868;53.398;6.564;2022-08-19T13:21:15;26.10;68.20
53962;DHT22;39868;53.398;6.564;2022-08-19T13:23:43;26.00;68.70
53962;DHT22;39868;53.398;6.564;2022-08-19T13:26:11;25.90;69.40
53962;DHT22;39868;53.398;6.564;2022-08-19T13:28:40;25.90;69.90
53962;DHT22;39868;53.398;6.564;2022-08-19T13:31:29;25.90;70.00
53962;DHT22;39868;53.398;6.564;2022-08-19T13:34:16;25.80;70.00
53962;DHT22;39868;53.398;6.564;2022-08-19T13:36:45;25.80;70.10
53962;DHT22;39868;53.398;6.564;2022-08-19T13:39:12;25.80;70.10
53962;DHT22;39868;53.398;6.564;2022-08-19T13:41:44;25.80;69.80
53962;DHT22;39868;53.398;6.564;2022-08-19T13:44:16;25.80;69.40
53962;DHT22;39868;53.398;6.564;2022-08-19T13:46:48;25.80;69.40
53962;DHT22;39868;53.398;6.564;2022-08-19T13:49:20;25.80;69.50
53962;DHT22;39868;53.398;6.564;2022-08-19T13:51:47;25.80;69.50
53962;DHT22;39868;53.398;6.564;2022-08-19T13:54:15;25.80;70.40
53962;DHT22;39868;53.398;6.564;2022-08-19T13:56:44;25.80;69.60
53962;DHT22;39868;53.398;6.564;2022-08-19T13:59:12;25.80;70.30
53962;DHT22;39868;53.398;6.564;2022-08-19T14:01:40;25.80;70.50
53962;DHT22;39868;53.398;6.564;2022-08-19T14:04:09;25.80;70.90
53962;DHT22;39868;53.398;6.564;2022-08-19T14:06:36;25.80;71.00
53962;DHT22;39868;53.398;6.564;2022-08-19T14:09:04;25.80;71.10
53962;DHT22;39868;53.398;6.564;2022-08-19T14:11:32;25.80;71.00
53962;DHT22;39868;53.398;6.564;2022-08-19T14:14:00;25.80;70.90
53962;DHT22;39868;53.398;6.564;2022-08-19T14:16:27;25.70;70.60
53962;DHT22;39868;53.398;6.564;2022-08-19T14:18:57;25.70;70.30
53962;DHT22;39868;53.398;6.564;2022-08-19T14:21:25;25.70;69.70
53962;DHT22;39868;53.398;6.564;2022-08-19T14:23:53;25.70;69.30
53962;DHT22;39868;53.398;6.564;2022-08-19T14:26:23;25.60;69.30
53962;DHT22;39868;53.398;6.564;2022-08-19T14:28:51;25.60;69.30
53962;DHT22;39868;53.398;6.564;2022-08-19T14:31:19;25.60;69.20
53962;DHT22;39868;53.398;6.564;2022-08-19T14:33:49;25.60;69.80
53962;DHT22;39868;53.398;6.564;2022-08-19T14:36:18;25.50;69.40
53962;DHT22;39868;53.398;6.564;2022-08-19T14:38:48;25.60;69.70
53962;DHT22;39868;53.398;6.564;2022-08-19T14:41:21;25.70;69.60
53962;DHT22;39868;53.398;6.564;2022-08-19T14:43:51;25.80;69.00
53962;DHT22;39868;53.398;6.564;2022-08-19T14:46:24;25.90;68.80
53962;DHT22;39868;53.398;6.564;2022-08-19T14:48:55;26.00;69.00
53962;DHT22;39868;53.398;6.564;2022-08-19T14:51:26;26.10;69.10
53962;DHT22;39868;53.398;6.564;2022-08-19T14:53:54;26.20;69.50
53962;DHT22;39868;53.398;6.564;2022-08-19T14:56:25;26.20;70.00
53962;DHT22;39868;53.398;6.564;2022-08-19T14:58:53;26.20;70.20
53962;DHT22;39868;53.398;6.564;2022-08-19T15:01:22;26.30;70.30
53962;DHT22;39868;53.398;6.564;2022-08-19T15:03:50;26.20;70.40
53962;DHT22;39868;53.398;6.564;2022-08-19T15:06:21;26.30;70.60
53962;DHT22;39868;53.398;6.564;2022-08-19T15:08:49;26.20;70.60
53962;DHT22;39868;53.398;6.564;2022-08-19T15:11:22;26.20;70.30
53962;DHT22;39868;53.398;6.564;2022-08-19T15:13:50;26.20;70.60
53962;DHT22;39868;53.398;6.564;2022-08-19T15:16:18;26.10;70.80
53962;DHT22;39868;53.398;6.564;2022-08-19T15:18:49;26.10;71.00
53962;DHT22;39868;53.398;6.564;2022-08-19T15:21:18;26.00;71.10
53962;DHT22;39868;53.398;6.564;2022-08-19T15:23:55;26.00;71.20
53962;DHT22;39868;53.398;6.564;2022-08-19T15:26:23;25.90;71.30
53962;DHT22;39868;53.398;6.564;2022-08-19T15:28:52;25.90;71.00
53962;DHT22;39868;53.398;6.564;2022-08-19T15:31:21;25.80;71.00
53962;DHT22;39868;53.398;6.564;2022-08-19T15:33:56;25.80;71.00
53962;DHT22;39868;53.398;6.564;2022-08-19T15:36:26;25.70;71.20
53962;DHT22;39868;53.398;6.564;2022-08-19T15:38:57;25.60;71.30
53962;DHT22;39868;53.398;6.564;2022-08-19T15:41:29;25.60;71.50
53962;DHT22;39868;53.398;6.564;2022-08-19T15:43:58;25.50;71.60
53962;DHT22;39868;53.398;6.564;2022-08-19T15:46:30;25.40;70.80
53962;DHT22;39868;53.398;6.564;2022-08-19T15:48:58;25.30;71.60
53962;DHT22;39868;53.398;6.564;2022-08-19T15:51:30;25.20;71.80
53962;DHT22;39868;53.398;6.564;2022-08-19T15:53:59;25.10;72.00
53962;DHT22;39868;53.398;6.564;2022-08-19T15:56:27;25.10;72.30
53962;DHT22;39868;53.398;6.564;2022-08-19T15:59:24;25.00;72.60